Time;durP1;ratioP1;P1;durP2;ratioP2;P2;SDS_P1;SDS_P2;PMS_P1;PMS_P2;Temp;Humidity;BMP_temperature;BMP_pressure;BME280_temperature;BME280_humidity;BME280_pressure;Samples;Min_cycle;Max_cycle;Signal;HPM_P1;HPM_P2
2022/03/02 00:01:24;;;;;;;6.18;4.50;;;20.50;48.30;;;;;;5015687;28;20382;-58
2022/03/02 00:03:49;;;;;;;6.95;4.63;;;20.50;48.40;;;;;;5016074;28;20034;-58
2022/03/02 00:06:15;;;;;;;6.78;4.80;;;20.50;48.30;;;;;;5015174;28;20037;-58
2022/03/02 00:08:40;;;;;;;6.13;4.10;;;20.50;48.40;;;;;;5014608;28;20120;-58
2022/03/02 00:11:06;;;;;;;5.70;4.30;;;20.50;48.40;;;;;;5015774;28;20037;-58
2022/03/02 00:13:32;;;;;;;7.28;4.75;;;20.40;48.30;;;;;;5015135;28;20514;-58
2022/03/02 00:15:57;;;;;;;7.97;4.60;;;20.40;48.40;;;;;;5016189;28;20042;-58
2022/03/02 00:18:23;;;;;;;6.45;4.55;;;20.40;48.40;;;;;;5015181;28;20049;-57
2022/03/02 00:20:48;;;;;;;5.93;4.60;;;20.40;48.40;;;;;;5016050;28;20129;-58
2022/03/02 00:23:14;;;;;;;6.63;4.80;;;20.40;48.40;;;;;;5015393;28;20046;-58
2022/03/02 00:25:39;;;;;;;6.07;4.38;;;20.40;48.40;;;;;;5015013;28;20054;-58
2022/03/02 00:28:05;;;;;;;6.07;4.40;;;20.30;48.40;;;;;;5015261;28;20389;-58
2022/03/02 00:30:31;;;;;;;6.65;4.72;;;20.40;48.40;;;;;;5015577;28;20069;-58
2022/03/02 00:32:59;;;;;;;6.20;4.45;;;20.30;48.40;;;;;;5015085;28;20050;-58
2022/03/02 00:35:25;;;;;;;6.77;4.30;;;20.30;48.40;;;;;;5014816;28;20054;-58
2022/03/02 00:37:50;;;;;;;7.10;4.72;;;20.30;48.40;;;;;;5015696;28;20044;-58
2022/03/02 00:40:16;;;;;;;6.22;4.25;;;20.30;48.40;;;;;;5014334;28;20045;-58
2022/03/02 00:42:41;;;;;;;6.88;5.07;;;20.30;48.50;;;;;;5015510;28;20038;-58
2022/03/02 00:45:07;;;;;;;7.10;4.70;;;20.30;48.50;;;;;;5014953;28;20562;-58
2022/03/02 00:47:32;;;;;;;6.63;4.65;;;20.30;48.50;;;;;;5014826;28;20061;-58
2022/03/02 00:49:58;;;;;;;6.97;4.60;;;20.30;48.40;;;;;;5014161;28;20398;-58
2022/03/02 00:52:24;;;;;;;7.43;4.60;;;20.30;48.50;;;;;;5013804;28;20501;-58
2022/03/02 00:54:49;;;;;;;7.40;4.25;;;20.20;48.30;;;;;;5013064;28;20049;-58
2022/03/02 00:57:15;;;;;;;8.07;5.28;;;20.20;48.40;;;;;;5014838;28;20058;-58
2022/03/02 00:59:40;;;;;;;6.35;4.55;;;20.20;48.40;;;;;;5015288;28;20069;-58
2022/03/02 01:02:06;;;;;;;6.78;4.38;;;20.20;48.40;;;;;;5013747;28;20490;-58
2022/03/02 01:04:31;;;;;;;6.47;4.85;;;20.20;48.40;;;;;;5014929;28;20046;-58
2022/03/02 01:06:57;;;;;;;6.93;4.85;;;20.20;48.40;;;;;;5014695;28;20045;-58
2022/03/02 01:09:22;;;;;;;6.63;4.60;;;20.20;48.40;;;;;;5013608;28;20057;-58
2022/03/02 01:11:48;;;;;;;7.05;4.65;;;20.20;48.40;;;;;;5014959;28;20045;-58
2022/03/02 01:14:13;;;;;;;6.07;4.32;;;20.20;48.40;;;;;;5014663;28;20652;-58
2022/03/02 01:16:39;;;;;;;6.72;4.47;;;20.20;48.40;;;;;;5014224;28;20425;-58
2022/03/02 01:19:05;;;;;;;6.93;4.57;;;20.20;48.40;;;;;;5014363;28;20129;-58
2022/03/02 01:21:31;;;;;;;6.30;4.40;;;20.20;48.40;;;;;;5014409;28;20497;-58
2022/03/02 01:23:58;;;;;;;6.32;4.50;;;20.10;48.40;;;;;;5014187;28;20048;-58
2022/03/02 01:26:24;;;;;;;6.18;4.50;;;20.10;48.40;;;;;;5014480;28;20189;-58
2022/03/02 01:28:51;;;;;;;6.72;4.55;;;20.10;48.40;;;;;;5013765;28;20042;-58
2022/03/02 01:31:16;;;;;;;7.55;4.80;;;20.10;48.40;;;;;;5014381;28;20046;-58
2022/03/02 01:33:42;;;;;;;6.43;4.63;;;20.10;48.30;;;;;;5014525;28;20405;-58
2022/03/02 01:36:07;;;;;;;6.80;4.63;;;20.10;48.40;;;;;;5013560;28;20092;-58
2022/03/02 01:38:33;;;;;;;5.82;4.47;;;20.10;48.40;;;;;;5014399;28;20045;-58
2022/03/02 01:40:58;;;;;;;6.78;4.60;;;20.00;48.30;;;;;;5014529;28;20468;-58
2022/03/02 01:43:27;;;;;;;6.22;4.55;;;20.10;48.50;;;;;;5013321;28;20050;-58
2022/03/02 01:45:53;;;;;;;7.18;4.90;;;20.00;48.40;;;;;;5012791;28;20046;-58
2022/03/02 01:48:18;;;;;;;6.85;4.40;;;20.10;48.50;;;;;;5013547;28;20096;-58
2022/03/02 01:50:44;;;;;;;6.78;4.22;;;20.00;48.40;;;;;;5013637;28;20050;-58
2022/03/02 01:53:09;;;;;;;7.18;4.72;;;20.00;48.40;;;;;;5012464;28;20041;-58
2022/03/02 01:55:35;;;;;;;6.78;4.82;;;20.00;48.40;;;;;;5013734;28;20096;-58
2022/03/02 01:58:00;;;;;;;6.03;4.63;;;20.00;48.40;;;;;;5013434;28;20084;-58
2022/03/02 02:00:26;;;;;;;6.60;4.22;;;20.00;48.50;;;;;;5013538;28;20050;-58
2022/03/02 02:02:52;;;;;;;6.35;4.70;;;20.00;48.40;;;;;;5013586;28;20046;-58
2022/03/02 02:05:17;;;;;;;7.03;4.63;;;20.00;48.40;;;;;;5012716;28;20046;-58
2022/03/02 02:07:44;;;;;;;6.82;4.40;;;20.00;48.40;;;;;;5013696;28;20069;-58
2022/03/02 02:10:09;;;;;;;7.30;5.18;;;19.90;48.30;;;;;;5013285;28;20052;-58
2022/03/02 02:12:35;;;;;;;7.72;4.63;;;19.90;48.40;;;;;;5013170;28;20042;-58
2022/03/02 02:15:01;;;;;;;6.53;4.45;;;19.90;48.40;;;;;;5012866;28;20045;-58
2022/03/02 02:17:27;;;;;;;7.13;4.90;;;19.90;48.40;;;;;;5013095;28;20409;-58
2022/03/02 02:19:53;;;;;;;6.32;4.72;;;19.90;48.30;;;;;;5012938;28;20042;-58
2022/03/02 02:22:18;;;;;;;7.75;4.82;;;19.90;48.40;;;;;;5013535;28;20454;-58
2022/03/02 02:24:44;;;;;;;7.38;4.55;;;19.90;48.40;;;;;;5013467;28;20045;-58
2022/03/02 02:27:10;;;;;;;6.60;4.93;;;19.90;48.40;;;;;;5012719;28;20050;-58
2022/03/02 02:29:36;;;;;;;7.85;5.00;;;19.90;48.40;;;;;;5027605;28;20943;-58
2022/03/02 02:32:01;;;;;;;7.22;5.05;;;19.90;48.40;;;;;;5012474;28;20034;-58
2022/03/02 02:34:27;;;;;;;7.03;4.50;;;19.90;48.40;;;;;;5012178;28;20038;-58
2022/03/02 02:36:52;;;;;;;8.25;4.55;;;19.90;48.50;;;;;;5013573;28;20040;-58
2022/03/02 02:39:18;;;;;;;9.57;5.03;;;19.90;48.40;;;;;;5011104;28;20169;-58
2022/03/02 02:41:43;;;;;;;7.88;5.07;;;19.90;48.30;;;;;;5013421;28;20038;-58
2022/03/02 02:44:09;;;;;;;7.47;4.70;;;19.90;48.30;;;;;;5013098;28;20041;-58
2022/03/02 02:46:34;;;;;;;6.50;4.63;;;19.90;48.30;;;;;;5011403;28;20053;-58
2022/03/02 02:49:00;;;;;;;6.30;4.78;;;19.90;48.20;;;;;;5012962;28;20177;-57
2022/03/02 02:51:25;;;;;;;7.15;5.00;;;19.90;48.20;;;;;;5013077;28;20088;-58
2022/03/02 02:53:51;;;;;;;6.13;4.70;;;19.90;48.30;;;;;;5012321;28;20172;-57
2022/03/02 02:56:16;;;;;;;7.57;4.78;;;19.90;48.30;;;;;;5013018;28;20042;-58
2022/03/02 02:58:42;;;;;;;6.47;4.43;;;20.00;48.30;;;;;;5013005;28;20493;-58
2022/03/02 03:01:07;;;;;;;8.18;4.90;;;20.00;48.30;;;;;;5010944;28;20406;-58
2022/03/02 03:03:33;;;;;;;7.05;4.72;;;20.00;48.70;;;;;;5012234;28;20042;-58
2022/03/02 03:05:58;;;;;;;6.95;5.05;;;20.00;48.30;;;;;;5010816;28;20096;-58
2022/03/02 03:08:24;;;;;;;8.45;5.15;;;20.00;48.30;;;;;;5011586;28;20561;-58
2022/03/02 03:10:49;;;;;;;6.85;4.63;;;20.00;48.30;;;;;;5012980;28;20524;-58
2022/03/02 03:13:15;;;;;;;7.00;4.78;;;20.00;49.00;;;;;;5012749;28;20046;-58
2022/03/02 03:15:41;;;;;;;7.75;5.25;;;20.00;48.30;;;;;;5012144;28;20052;-58
2022/03/02 03:18:07;;;;;;;7.35;4.78;;;20.00;48.30;;;;;;5011410;28;20113;-58
2022/03/02 03:20:33;;;;;;;6.85;4.63;;;20.00;48.20;;;;;;5013048;28;20072;-58
2022/03/02 03:22:58;;;;;;;7.75;5.13;;;20.00;48.20;;;;;;5011855;28;20046;-58
2022/03/02 03:25:24;;;;;;;7.55;5.43;;;20.00;48.20;;;;;;5013636;28;20049;-58
2022/03/02 03:27:50;;;;;;;7.40;4.85;;;20.10;48.20;;;;;;5017057;28;20046;-58
2022/03/02 03:30:16;;;;;;;6.03;4.75;;;20.10;48.20;;;;;;5015325;28;20046;-58
2022/03/02 03:32:42;;;;;;;7.03;4.70;;;20.10;48.20;;;;;;5016836;28;20082;-58
2022/03/02 03:35:08;;;;;;;8.00;5.22;;;20.10;48.20;;;;;;5016473;28;20073;-58
2022/03/02 03:37:34;;;;;;;6.15;4.70;;;20.10;48.10;;;;;;5016294;28;20120;-58
2022/03/02 03:39:59;;;;;;;6.93;4.80;;;20.10;48.10;;;;;;5016697;28;20446;-58
2022/03/02 03:42:25;;;;;;;6.78;4.97;;;20.10;48.10;;;;;;5015664;28;20054;-58
2022/03/02 03:44:50;;;;;;;5.70;4.20;;;20.10;48.00;;;;;;5016661;28;20049;-58
2022/03/02 03:47:16;;;;;;;6.93;4.80;;;20.10;48.00;;;;;;5016216;28;20092;-58
2022/03/02 03:49:41;;;;;;;6.53;4.85;;;20.10;48.10;;;;;;5015836;28;20132;-58
2022/03/02 03:52:07;;;;;;;6.80;4.85;;;20.10;48.10;;;;;;5015834;28;20046;-58
2022/03/02 03:54:32;;;;;;;6.60;4.72;;;20.10;48.00;;;;;;5016328;28;20054;-58
2022/03/02 03:56:58;;;;;;;7.65;5.18;;;20.10;48.00;;;;;;5015515;28;20042;-58
2022/03/02 03:59:23;;;;;;;5.88;4.25;;;20.10;48.00;;;;;;5015468;28;20045;-58
2022/03/02 04:01:49;;;;;;;6.70;4.15;;;20.20;48.10;;;;;;5016202;28;20045;-58
2022/03/02 04:04:15;;;;;;;7.10;4.90;;;20.10;48.00;;;;;;5015313;28;20046;-58
2022/03/02 04:06:40;;;;;;;7.82;5.53;;;20.20;48.00;;;;;;5016198;28;20045;-58
2022/03/02 04:09:06;;;;;;;6.90;5.07;;;20.10;48.00;;;;;;5015314;28;20053;-58
2022/03/02 04:11:31;;;;;;;6.65;4.53;;;20.10;48.00;;;;;;5015187;28;20413;-58
2022/03/02 04:13:57;;;;;;;6.70;4.72;;;20.20;48.00;;;;;;5016045;28;20124;-58
2022/03/02 04:16:22;;;;;;;6.68;4.78;;;20.10;48.00;;;;;;5015452;28;20049;-58
2022/03/02 04:18:48;;;;;;;7.40;5.30;;;20.10;48.00;;;;;;5015230;28;20445;-58
2022/03/02 04:21:14;;;;;;;6.97;4.88;;;20.10;48.00;;;;;;5015689;28;20041;-58
2022/03/02 04:23:39;;;;;;;7.43;5.07;;;20.10;48.00;;;;;;5015681;28;20053;-58
2022/03/02 04:26:05;;;;;;;6.55;4.57;;;20.10;48.00;;;;;;5014816;28;20053;-59
2022/03/02 04:28:30;;;;;;;6.78;4.95;;;20.20;48.00;;;;;;5015473;28;20082;-58
2022/03/02 04:30:56;;;;;;;6.53;4.50;;;20.10;48.00;;;;;;5015764;28;20493;-58
2022/03/02 04:33:21;;;;;;;6.45;4.93;;;20.10;47.90;;;;;;5014551;28;20061;-58
2022/03/02 04:35:47;;;;;;;7.30;5.03;;;20.20;48.00;;;;;;5015632;28;20513;-58
2022/03/02 04:38:12;;;;;;;7.35;5.07;;;20.20;47.90;;;;;;5014524;28;20176;-58
2022/03/02 04:40:38;;;;;;;7.35;4.78;;;20.20;47.90;;;;;;5014871;28;20042;-58
2022/03/02 04:43:03;;;;;;;7.63;5.05;;;20.20;47.90;;;;;;5015532;28;20045;-58
2022/03/02 04:45:29;;;;;;;6.47;4.70;;;20.20;47.90;;;;;;5015060;28;20184;-58
2022/03/02 04:47:55;;;;;;;6.22;5.10;;;20.20;47.90;;;;;;5014737;28;20049;-58
2022/03/02 04:50:20;;;;;;;7.68;5.10;;;20.20;47.90;;;;;;5014823;28;20046;-58
2022/03/02 04:52:47;;;;;;;6.57;4.95;;;20.20;47.90;;;;;;5014535;28;20045;-58
2022/03/02 04:55:12;;;;;;;6.80;5.00;;;20.20;47.90;;;;;;5015043;28;20057;-58
2022/03/02 04:57:42;;;;;;;7.50;5.05;;;20.20;47.90;;;;;;5015211;28;20049;-58
2022/03/02 05:00:15;;;;;;;6.97;5.15;;;20.20;47.80;;;;;;5013570;28;20050;-58
2022/03/02 05:02:41;;;;;;;6.65;4.85;;;20.20;47.80;;;;;;5010403;28;20046;-58
2022/03/02 05:05:08;;;;;;;7.32;4.97;;;20.20;47.70;;;;;;5014058;28;20076;-58
2022/03/02 05:07:34;;;;;;;6.43;4.85;;;20.20;47.70;;;;;;5013923;28;20058;-58
2022/03/02 05:10:00;;;;;;;6.68;4.70;;;20.20;47.70;;;;;;5014505;28;20401;-58
2022/03/02 05:12:26;;;;;;;7.30;5.10;;;20.20;47.70;;;;;;5014899;28;20041;-58
2022/03/02 05:14:51;;;;;;;8.40;5.07;;;20.20;47.70;;;;;;5013834;28;20053;-58
2022/03/02 05:17:17;;;;;;;7.53;5.03;;;20.20;47.70;;;;;;5014643;28;20073;-58
2022/03/02 05:19:42;;;;;;;6.90;4.95;;;20.20;47.70;;;;;;5014816;28;20046;-58
2022/03/02 05:22:09;;;;;;;7.15;4.65;;;20.20;47.70;;;;;;5013546;28;20081;-58
2022/03/02 05:24:35;;;;;;;7.40;5.40;;;20.20;47.70;;;;;;5014575;28;20085;-58
2022/03/02 05:27:00;;;;;;;7.35;4.93;;;20.20;47.70;;;;;;5014408;28;20435;-58
2022/03/02 05:29:26;;;;;;;7.35;5.05;;;20.30;47.80;;;;;;5013350;28;20046;-58
2022/03/02 05:31:51;;;;;;;7.78;5.25;;;20.20;47.70;;;;;;5014909;28;20077;-58
2022/03/02 05:34:17;;;;;;;6.63;4.95;;;20.20;47.70;;;;;;5014058;28;20056;-58
2022/03/02 05:36:42;;;;;;;7.13;5.10;;;20.20;47.70;;;;;;5013545;28;20112;-58
2022/03/02 05:39:08;;;;;;;8.02;5.22;;;20.20;47.70;;;;;;5013689;28;20050;-58
2022/03/02 05:41:33;;;;;;;7.47;4.65;;;20.20;47.70;;;;;;5014525;28;20049;-58
2022/03/02 05:43:59;;;;;;;7.88;4.82;;;20.20;47.60;;;;;;5013043;28;20128;-58
2022/03/02 05:46:25;;;;;;;7.82;5.38;;;20.20;47.60;;;;;;5014276;28;20054;-58
2022/03/02 05:48:52;;;;;;;6.60;4.90;;;20.20;47.70;;;;;;5013502;28;20033;-58
2022/03/02 05:51:18;;;;;;;7.53;5.65;;;20.30;47.70;;;;;;5013769;28;20050;-58
2022/03/02 05:53:44;;;;;;;6.90;4.70;;;20.20;47.60;;;;;;5013952;28;20069;-58
2022/03/02 05:56:09;;;;;;;6.82;5.10;;;20.30;47.70;;;;;;5013126;28;20149;-58
2022/03/02 05:58:35;;;;;;;7.60;4.95;;;20.20;47.60;;;;;;5013849;28;20049;-58
2022/03/02 06:01:01;;;;;;;6.40;4.75;;;20.20;47.70;;;;;;5014124;28;20046;-58
2022/03/02 06:03:26;;;;;;;6.82;5.10;;;20.20;47.70;;;;;;5012820;28;20046;-58
2022/03/02 06:05:52;;;;;;;6.47;4.72;;;20.20;47.70;;;;;;5012886;28;20130;-58
2022/03/02 06:08:17;;;;;;;7.93;5.32;;;20.20;47.60;;;;;;5013404;28;20058;-58
2022/03/02 06:10:43;;;;;;;7.25;4.85;;;20.20;47.60;;;;;;5013084;28;20046;-58
2022/03/02 06:13:09;;;;;;;6.78;4.90;;;20.20;47.70;;;;;;5012027;28;20132;-58
2022/03/02 06:15:35;;;;;;;7.30;4.97;;;20.20;47.70;;;;;;5013841;28;20188;-58
2022/03/02 06:18:03;;;;;;;7.63;5.18;;;20.20;47.60;;;;;;5012936;28;20394;-58
2022/03/02 06:20:29;;;;;;;7.60;5.05;;;20.20;47.60;;;;;;5013768;28;20068;-58
2022/03/02 06:22:55;;;;;;;7.43;4.85;;;20.20;47.60;;;;;;5013461;28;20417;-58
2022/03/02 06:25:20;;;;;;;6.13;4.90;;;20.20;47.50;;;;;;5012288;28;20041;-58
2022/03/02 06:27:46;;;;;;;6.65;4.88;;;20.20;47.50;;;;;;5013485;28;20081;-58
2022/03/02 06:30:12;;;;;;;6.47;4.82;;;20.30;47.60;;;;;;5013310;28;20053;-58
2022/03/02 06:32:38;;;;;;;7.28;4.75;;;20.30;47.50;;;;;;5012926;28;20033;-58
2022/03/02 06:35:05;;;;;;;7.20;5.18;;;20.30;47.50;;;;;;5013199;28;20465;-58
2022/03/02 06:37:33;;;;;;;7.28;5.30;;;20.30;47.50;;;;;;5012448;28;20045;-58
2022/03/02 06:40:06;;;;;;;6.65;4.85;;;20.30;47.50;;;;;;5012495;28;20049;-58
2022/03/02 06:43:02;;;;;;;6.70;4.70;;;20.30;47.50;;;;;;5013616;28;20060;-58
2022/03/02 06:45:37;;;;;;;8.13;4.82;;;20.30;47.40;;;;;;5010979;28;20493;-58
2022/03/02 06:48:30;;;;;;;7.85;4.88;;;20.30;47.50;;;;;;5013386;28;20041;-58
2022/03/02 06:50:56;;;;;;;8.50;5.40;;;20.30;47.40;;;;;;4998916;28;20054;-58
2022/03/02 06:53:30;;;;;;;8.10;5.40;;;20.30;47.40;;;;;;5010897;28;20452;-58
2022/03/02 06:55:55;;;;;;;7.85;5.38;;;20.30;47.40;;;;;;5012100;28;20103;-58
2022/03/02 06:58:21;;;;;;;7.30;5.18;;;20.30;47.40;;;;;;5011533;28;20049;-58
2022/03/02 07:00:51;;;;;;;9.38;5.38;;;20.30;47.40;;;;;;5011962;28;20042;-58
2022/03/02 07:03:18;;;;;;;7.43;5.30;;;20.30;48.10;;;;;;5012782;28;20053;-58
2022/03/02 07:05:44;;;;;;;7.25;5.13;;;20.40;47.40;;;;;;5011680;28;20045;-58
2022/03/02 07:08:09;;;;;;;6.82;5.10;;;20.40;47.40;;;;;;4994261;28;20045;-58
2022/03/02 07:10:36;;;;;;;6.90;4.60;;;20.40;47.50;;;;;;5013135;28;20061;-58
2022/03/02 07:13:04;;;;;;;8.82;5.65;;;20.40;47.40;;;;;;5012673;28;20041;-58
2022/03/02 07:15:31;;;;;;;7.27;5.10;;;20.40;47.40;;;;;;5012190;28;20104;-58
2022/03/02 07:17:58;;;;;;;7.13;5.45;;;20.40;47.40;;;;;;5012856;28;20041;-58
2022/03/02 07:20:26;;;;;;;7.13;5.07;;;20.40;47.40;;;;;;5011581;28;20379;-58
2022/03/02 07:22:52;;;;;;;6.30;4.30;;;20.40;47.40;;;;;;5012810;28;20073;-58
2022/03/02 07:25:33;;;;;;;6.97;5.10;;;20.40;47.40;;;;;;5012232;28;20096;-58
2022/03/02 07:28:00;;;;;;;7.68;4.97;;;20.40;47.40;;;;;;5011916;28;20046;-59
2022/03/02 07:30:26;;;;;;;6.38;4.60;;;20.40;47.30;;;;;;5011413;28;20494;-58
2022/03/02 07:32:54;;;;;;;7.55;4.90;;;20.40;47.40;;;;;;5012726;28;20046;-58
2022/03/02 07:35:20;;;;;;;7.88;4.85;;;20.50;47.50;;;;;;5011759;28;20046;-59
2022/03/02 07:37:46;;;;;;;8.52;5.28;;;20.50;47.40;;;;;;5012516;28;20093;-58
2022/03/02 07:40:11;;;;;;;9.77;5.25;;;20.50;47.30;;;;;;5012157;28;20092;-58
2022/03/02 07:42:37;;;;;;;6.63;4.93;;;20.50;47.40;;;;;;5011410;28;20078;-58
2022/03/02 07:45:03;;;;;;;7.88;4.97;;;20.50;47.40;;;;;;5012690;28;20400;-59
2022/03/02 07:47:29;;;;;;;7.25;5.32;;;20.50;47.40;;;;;;5012701;28;20049;-58
2022/03/02 07:49:54;;;;;;;7.47;4.70;;;20.60;47.50;;;;;;5011853;28;20049;-58
2022/03/02 07:52:27;;;;;;;6.88;4.78;;;20.60;47.50;;;;;;5012127;28;20505;-58
2022/03/02 07:54:57;;;;;;;7.22;5.10;;;20.60;47.60;;;;;;5012600;28;20050;-59
2022/03/02 07:57:23;;;;;;;7.63;5.45;;;20.60;47.70;;;;;;5008018;28;20061;-59
2022/03/02 07:59:49;;;;;;;6.82;4.57;;;20.70;47.90;;;;;;5010843;28;20041;-59
2022/03/02 08:02:15;;;;;;;7.15;5.28;;;20.70;48.00;;;;;;5009225;28;20059;-58
2022/03/02 08:04:41;;;;;;;7.90;5.45;;;20.70;48.10;;;;;;5008466;28;20486;-59
2022/03/02 08:07:07;;;;;;;8.00;5.03;;;20.70;48.10;;;;;;5010338;28;20124;-59
2022/03/02 08:09:34;;;;;;;8.32;5.00;;;20.70;48.20;;;;;;5008459;28;20145;-58
2022/03/02 08:12:00;;;;;;;8.10;5.20;;;20.80;48.30;;;;;;5009968;28;20054;-58
2022/03/02 08:14:26;;;;;;;6.82;5.00;;;20.80;48.40;;;;;;5014294;28;20068;-58
2022/03/02 08:16:52;;;;;;;9.20;5.43;;;20.80;48.40;;;;;;5014864;28;20156;-58
2022/03/02 08:19:18;;;;;;;8.55;5.40;;;20.80;48.50;;;;;;5015433;28;20073;-59
2022/03/02 08:21:44;;;;;;;8.52;5.25;;;20.90;48.60;;;;;;5015776;28;20042;-59
2022/03/02 08:24:10;;;;;;;8.98;5.20;;;20.90;48.70;;;;;;5013779;28;20049;-59
2022/03/02 08:26:37;;;;;;;9.13;5.30;;;20.90;48.70;;;;;;4997923;28;20120;-59
2022/03/02 08:29:08;;;;;;;9.60;5.18;;;20.90;49.30;;;;;;5015399;28;20046;-59
2022/03/02 08:31:35;;;;;;;7.95;5.30;;;21.00;48.70;;;;;;5014197;28;20050;-58
2022/03/02 08:34:01;;;;;;;8.98;5.13;;;21.00;48.70;;;;;;5015632;28;20037;-58
2022/03/02 08:36:33;;;;;;;9.23;4.78;;;21.00;48.70;;;;;;5013325;28;20048;-59
2022/03/02 08:39:00;;;;;;;9.55;4.85;;;21.00;48.80;;;;;;5011935;28;20636;-58
2022/03/02 08:41:25;;;;;;;9.38;5.32;;;21.10;48.90;;;;;;4995619;28;20155;-58
2022/03/02 08:43:51;;;;;;;8.68;5.35;;;21.10;48.90;;;;;;5013364;28;20132;-58
2022/03/02 08:46:16;;;;;;;9.82;5.43;;;21.10;48.80;;;;;;5014207;28;20060;-59
2022/03/02 08:48:42;;;;;;;8.68;5.25;;;21.10;48.70;;;;;;5015326;28;20042;-58
2022/03/02 08:51:07;;;;;;;8.20;5.85;;;21.10;48.70;;;;;;5014800;28;20433;-58
2022/03/02 08:53:33;;;;;;;9.07;5.63;;;21.10;48.70;;;;;;5014501;28;20034;-58
2022/03/02 08:56:03;;;;;;;8.43;5.55;;;21.10;48.70;;;;;;5014959;28;20379;-58
2022/03/02 08:58:29;;;;;;;7.15;4.90;;;21.10;48.70;;;;;;5015150;28;20101;-58
2022/03/02 09:00:56;;;;;;;8.77;5.28;;;21.10;48.70;;;;;;5014610;28;20434;-58
2022/03/02 09:03:22;;;;;;;9.13;5.07;;;21.10;48.70;;;;;;4997719;28;20042;-58
2022/03/02 09:05:49;;;;;;;7.38;5.20;;;21.10;48.70;;;;;;5014264;28;20034;-59
2022/03/02 09:08:15;;;;;;;7.68;5.07;;;21.10;48.70;;;;;;5014534;28;20050;-59
2022/03/02 09:10:41;;;;;;;8.07;5.18;;;21.10;48.70;;;;;;5014787;28;20402;-59
2022/03/02 09:13:08;;;;;;;7.78;5.13;;;21.10;48.60;;;;;;5013602;28;20857;-58
2022/03/02 09:15:34;;;;;;;7.10;5.22;;;21.10;48.60;;;;;;4997434;28;20398;-58
2022/03/02 09:18:00;;;;;;;8.38;5.47;;;21.10;48.70;;;;;;5014755;28;20092;-58
2022/03/02 09:20:26;;;;;;;6.38;4.75;;;21.10;48.60;;;;;;5013528;28;20077;-58
2022/03/02 09:22:52;;;;;;;8.30;5.10;;;21.10;48.60;;;;;;5014318;28;20057;-58
2022/03/02 09:25:18;;;;;;;7.15;4.97;;;21.10;48.60;;;;;;5014268;28;20095;-58
2022/03/02 09:27:43;;;;;;;8.48;5.15;;;21.20;48.70;;;;;;4996400;28;20418;-59
2022/03/02 09:30:09;;;;;;;7.35;5.00;;;21.20;49.40;;;;;;5013065;28;20046;-58
2022/03/02 09:32:36;;;;;;;8.88;5.55;;;21.20;48.70;;;;;;5014669;28;20038;-59
2022/03/02 09:35:03;;;;;;;7.57;5.25;;;21.10;48.60;;;;;;5012660;28;20057;-59
2022/03/02 09:37:33;;;;;;;7.07;4.90;;;21.20;48.70;;;;;;5014565;28;20077;-59
2022/03/02 09:39:58;;;;;;;7.70;5.03;;;21.20;48.70;;;;;;5014288;28;20031;-59
2022/03/02 09:42:31;;;;;;;8.43;5.38;;;21.10;48.60;;;;;;4995949;28;20532;-59
2022/03/02 09:45:01;;;;;;;8.18;5.40;;;21.20;48.70;;;;;;5014315;28;20041;-58
2022/03/02 09:47:29;;;;;;;7.22;4.97;;;21.20;48.70;;;;;;5013679;28;20050;-58
2022/03/02 09:49:55;;;;;;;8.50;4.93;;;21.20;48.70;;;;;;4996180;28;20054;-58
2022/03/02 09:52:21;;;;;;;14.60;5.45;;;21.20;48.70;;;;;;5013737;28;20541;-59
2022/03/02 09:54:52;;;;;;;7.57;4.90;;;21.20;48.70;;;;;;5013775;28;20042;-59
2022/03/02 09:57:18;;;;;;;7.35;4.82;;;21.20;48.60;;;;;;5010910;28;20042;-59
2022/03/02 09:59:48;;;;;;;7.43;5.20;;;21.10;48.60;;;;;;5013916;28;20042;-59
2022/03/02 10:02:14;;;;;;;6.57;4.68;;;21.20;48.60;;;;;;5011574;28;20041;-59
2022/03/02 10:04:40;;;;;;;7.15;5.15;;;21.20;48.60;;;;;;4996416;28;20045;-59
2022/03/02 10:09:52;;;;;;;7.97;5.53;;;21.10;48.50;;;;;;5013074;28;20071;-59
2022/03/02 10:12:21;;;;;;;8.02;4.68;;;21.10;48.50;;;;;;4996328;28;20046;-59
2022/03/02 10:14:48;;;;;;;7.75;4.80;;;21.10;48.50;;;;;;5013164;28;20046;-59
2022/03/02 10:17:18;;;;;;;8.30;5.07;;;21.10;48.60;;;;;;5011553;28;20046;-59
2022/03/02 10:19:53;;;;;;;7.20;4.45;;;21.10;48.50;;;;;;5012718;28;20050;-59
2022/03/02 10:22:56;;;;;;;7.78;4.75;;;21.10;48.50;;;;;;5013511;28;20053;-59
2022/03/02 10:25:51;;;;;;;7.10;5.15;;;21.10;48.60;;;;;;5012474;28;20107;-59
2022/03/02 10:28:27;;;;;;;7.10;4.60;;;21.10;48.50;;;;;;4991850;28;20088;-59
2022/03/02 10:31:08;;;;;;;6.55;4.75;;;21.00;48.50;;;;;;4976964;28;20047;-58
2022/03/02 10:33:37;;;;;;;7.38;4.55;;;21.00;48.50;;;;;;4994010;28;20080;-58
2022/03/02 10:36:07;;;;;;;7.15;4.57;;;21.00;48.50;;;;;;4992009;28;20124;-58
2022/03/02 10:38:39;;;;;;;7.13;4.50;;;21.00;48.50;;;;;;4993290;28;20066;-58
2022/03/02 10:41:08;;;;;;;6.95;4.80;;;21.00;48.40;;;;;;4993303;28;20161;-58
2022/03/02 10:43:58;;;;;;;6.45;4.70;;;21.00;48.40;;;;;;4993676;28;20040;-58
2022/03/02 10:46:24;;;;;;;8.15;4.65;;;20.90;48.30;;;;;;5000678;28;20062;-58
2022/03/02 10:48:55;;;;;;;7.38;4.43;;;20.90;48.40;;;;;;4993752;28;20053;-59
2022/03/02 10:51:21;;;;;;;7.40;4.72;;;20.90;48.30;;;;;;4992480;28;20050;-58
2022/03/02 10:53:47;;;;;;;7.10;5.13;;;20.90;48.40;;;;;;4976196;28;20044;-58
2022/03/02 10:56:14;;;;;;;6.45;4.45;;;20.90;48.40;;;;;;4975736;28;20409;-58
2022/03/02 10:58:40;;;;;;;8.02;5.43;;;20.90;48.30;;;;;;4991451;28;20446;-58
2022/03/02 11:01:06;;;;;;;7.25;4.43;;;20.90;48.30;;;;;;4976048;28;20521;-58
2022/03/02 11:03:35;;;;;;;6.80;4.22;;;20.90;48.40;;;;;;4993421;28;20038;-58
2022/03/02 11:06:02;;;;;;;7.20;4.72;;;20.90;48.30;;;;;;4992579;28;20049;-58
2022/03/02 11:08:29;;;;;;;7.93;4.75;;;20.90;48.30;;;;;;4992840;28;20046;-58
2022/03/02 11:10:55;;;;;;;8.13;4.50;;;20.80;48.20;;;;;;4993194;28;20054;-58
2022/03/02 11:13:22;;;;;;;6.75;4.65;;;20.90;48.20;;;;;;4992332;28;20038;-58
2022/03/02 11:15:52;;;;;;;7.78;4.97;;;20.80;48.20;;;;;;4992186;28;20097;-58
2022/03/02 11:18:19;;;;;;;7.07;4.55;;;20.80;48.20;;;;;;4992315;28;20053;-59
2022/03/02 11:21:00;;;;;;;7.10;4.45;;;20.80;48.10;;;;;;4991980;28;20058;-58
2022/03/02 11:23:26;;;;;;;6.90;4.72;;;20.80;47.90;;;;;;5005406;28;20041;-58
2022/03/02 11:25:53;;;;;;;6.40;4.55;;;20.80;48.00;;;;;;5012137;28;20061;-59
2022/03/02 11:28:23;;;;;;;8.67;4.70;;;20.80;48.10;;;;;;5011528;28;20042;-59
2022/03/02 11:31:00;;;;;;;7.97;4.57;;;20.80;48.20;;;;;;5012773;28;20054;-58
2022/03/02 11:33:27;;;;;;;6.30;4.60;;;20.80;48.20;;;;;;5012184;28;20042;-59
2022/03/02 11:36:07;;;;;;;7.07;4.68;;;20.80;48.20;;;;;;5012576;28;20104;-59
2022/03/02 11:38:33;;;;;;;7.07;4.22;;;20.80;48.20;;;;;;5012809;28;20046;-59
2022/03/02 11:40:59;;;;;;;7.07;4.65;;;20.80;48.10;;;;;;5011969;28;20042;-58
2022/03/02 11:43:28;;;;;;;7.43;4.57;;;20.80;48.00;;;;;;5012543;28;20093;-59
2022/03/02 11:45:58;;;;;;;6.95;4.43;;;20.80;48.60;;;;;;5013201;28;20120;-58
2022/03/02 11:48:25;;;;;;;8.23;4.63;;;20.90;48.00;;;;;;5013903;28;20053;-58
2022/03/02 11:51:14;;;;;;;6.72;4.60;;;20.90;47.90;;;;;;5016513;28;20121;-58
2022/03/02 11:53:44;;;;;;;8.98;4.68;;;20.90;47.80;;;;;;5016378;28;20046;-58
2022/03/02 11:56:12;;;;;;;6.90;4.88;;;20.90;47.70;;;;;;5015264;28;20038;-58
2022/03/02 11:58:57;;;;;;;7.53;4.75;;;20.80;47.60;;;;;;5008101;28;20376;-58
2022/03/02 12:01:23;;;;;;;7.57;4.85;;;20.90;47.50;;;;;;4997524;28;20383;-58
2022/03/02 12:03:59;;;;;;;7.50;4.80;;;20.80;47.40;;;;;;5009370;28;20042;-58
2022/03/02 12:06:26;;;;;;;7.00;4.38;;;20.90;47.50;;;;;;5013687;28;20129;-58
2022/03/02 12:08:53;;;;;;;9.77;5.07;;;20.90;47.40;;;;;;5005607;28;20051;-58
2022/03/02 12:11:25;;;;;;;8.88;4.68;;;20.90;47.40;;;;;;5014244;28;20042;-58
2022/03/02 12:14:07;;;;;;;8.85;4.60;;;20.90;48.10;;;;;;5015575;28;20100;-58
2022/03/02 12:16:44;;;;;;;7.57;4.25;;;20.90;47.60;;;;;;5014891;28;20498;-59
2022/03/02 12:19:27;;;;;;;6.70;4.32;;;20.90;47.60;;;;;;5014928;28;20038;-59
2022/03/02 12:22:02;;;;;;;6.97;4.70;;;20.90;47.70;;;;;;5015283;28;20046;-58
2022/03/02 12:24:29;;;;;;;7.50;4.57;;;21.00;47.70;;;;;;5013520;28;20146;-58
2022/03/02 12:27:09;;;;;;;7.18;4.75;;;21.00;47.70;;;;;;5015742;28;20050;-58
2022/03/02 12:29:35;;;;;;;8.88;4.97;;;21.00;47.70;;;;;;5015832;28;20057;-59
2022/03/02 12:32:07;;;;;;;8.45;4.10;;;21.00;47.60;;;;;;5013999;28;20481;-58
2022/03/02 12:34:35;;;;;;;6.63;4.05;;;21.00;47.70;;;;;;5015644;28;20046;-58
2022/03/02 12:37:00;;;;;;;8.90;4.63;;;21.00;47.70;;;;;;5014479;28;20517;-58
2022/03/02 12:39:26;;;;;;;6.35;4.32;;;21.00;47.70;;;;;;5013550;28;20041;-59
2022/03/02 12:41:51;;;;;;;8.50;4.57;;;21.00;47.70;;;;;;4997913;28;20128;-59
2022/03/02 12:44:17;;;;;;;8.05;3.90;;;21.00;47.70;;;;;;5012936;28;20048;-59
2022/03/02 12:46:42;;;;;;;6.95;4.18;;;21.10;47.80;;;;;;4997950;28;20046;-59
2022/03/02 12:49:08;;;;;;;8.27;4.30;;;21.10;47.70;;;;;;5013979;28;20038;-59
2022/03/02 12:51:33;;;;;;;6.88;4.22;;;21.10;47.70;;;;;;4996836;28;20552;-59